sensor_id;sensor_type;location;lat;lon;timestamp;P1;durP1;ratioP1;P2;durP2;ratioP2
52816;SDS011;38687;43.330;21.924;2023-01-29T00:01:35;41.40;;;20.30;;
52816;SDS011;38687;43.330;21.924;2023-01-29T00:04:00;40.00;;;19.85;;
52816;SDS011;38687;43.330;21.924;2023-01-29T00:06:25;43.28;;;20.95;;
52816;SDS011;38687;43.330;21.924;2023-01-29T00:08:51;45.65;;;22.33;;
52816;SDS011;38687;43.330;21.924;2023-01-29T00:11:16;40.30;;;20.45;;
52816;SDS011;38687;43.330;21.924;2023-01-29T00:13:42;44.42;;;21.42;;
52816;SDS011;38687;43.330;21.924;2023-01-29T00:16:07;47.22;;;23.40;;
52816;SDS011;38687;43.330;21.924;2023-01-29T00:18:36;46.38;;;22.38;;
52816;SDS011;38687;43.330;21.924;2023-01-29T00:21:01;40.80;;;20.75;;
52816;SDS011;38687;43.330;21.924;2023-01-29T00:23:26;45.33;;;21.10;;
52816;SDS011;38687;43.330;21.924;2023-01-29T00:25:52;44.20;;;21.67;;
52816;SDS011;38687;43.330;21.924;2023-01-29T00:28:17;49.30;;;21.85;;
52816;SDS011;38687;43.330;21.924;2023-01-29T00:30:42;46.13;;;21.70;;
52816;SDS011;38687;43.330;21.924;2023-01-29T00:33:08;42.55;;;22.85;;
52816;SDS011;38687;43.330;21.924;2023-01-29T00:35:33;45.90;;;23.10;;
52816;SDS011;38687;43.330;21.924;2023-01-29T00:37:58;42.28;;;20.73;;
52816;SDS011;38687;43.330;21.924;2023-01-29T00:40:24;50.67;;;21.23;;
52816;SDS011;38687;43.330;21.924;2023-01-29T00:42:49;39.33;;;20.70;;
52816;SDS011;38687;43.330;21.924;2023-01-29T00:45:33;43.38;;;20.38;;
52816;SDS011;38687;43.330;21.924;2023-01-29T00:48:01;39.45;;;18.05;;
52816;SDS011;38687;43.330;21.924;2023-01-29T00:50:26;41.47;;;19.52;;
52816;SDS011;38687;43.330;21.924;2023-01-29T00:52:51;40.03;;;20.10;;
52816;SDS011;38687;43.330;21.924;2023-01-29T00:55:18;38.00;;;18.05;;
52816;SDS011;38687;43.330;21.924;2023-01-29T00:57:44;40.50;;;18.58;;
52816;SDS011;38687;43.330;21.924;2023-01-29T01:00:10;37.97;;;18.58;;
52816;SDS011;38687;43.330;21.924;2023-01-29T01:02:36;41.70;;;20.27;;
52816;SDS011;38687;43.330;21.924;2023-01-29T01:05:19;39.08;;;17.88;;
52816;SDS011;38687;43.330;21.924;2023-01-29T01:07:49;36.20;;;18.83;;
52816;SDS011;38687;43.330;21.924;2023-01-29T01:10:22;40.80;;;18.55;;
52816;SDS011;38687;43.330;21.924;2023-01-29T01:13:03;41.85;;;19.70;;
52816;SDS011;38687;43.330;21.924;2023-01-29T01:15:36;36.20;;;17.38;;
52816;SDS011;38687;43.330;21.924;2023-01-29T01:18:02;35.47;;;17.83;;
52816;SDS011;38687;43.330;21.924;2023-01-29T01:20:29;35.83;;;17.23;;
52816;SDS011;38687;43.330;21.924;2023-01-29T01:22:54;36.08;;;16.95;;
52816;SDS011;38687;43.330;21.924;2023-01-29T01:25:20;35.55;;;18.55;;
52816;SDS011;38687;43.330;21.924;2023-01-29T01:27:46;36.92;;;18.65;;
52816;SDS011;38687;43.330;21.924;2023-01-29T01:30:15;34.83;;;17.67;;
52816;SDS011;38687;43.330;21.924;2023-01-29T01:32:40;39.85;;;18.17;;
52816;SDS011;38687;43.330;21.924;2023-01-29T01:35:06;32.17;;;17.17;;
52816;SDS011;38687;43.330;21.924;2023-01-29T01:37:31;32.97;;;16.48;;
52816;SDS011;38687;43.330;21.924;2023-01-29T01:40:00;38.75;;;18.15;;
52816;SDS011;38687;43.330;21.924;2023-01-29T01:42:28;33.50;;;16.80;;
52816;SDS011;38687;43.330;21.924;2023-01-29T01:45:00;36.78;;;18.90;;
52816;SDS011;38687;43.330;21.924;2023-01-29T01:50:38;30.95;;;16.25;;
52816;SDS011;38687;43.330;21.924;2023-01-29T01:52:56;31.98;;;15.77;;
52816;SDS011;38687;43.330;21.924;2023-01-29T01:55:24;29.52;;;15.70;;
52816;SDS011;38687;43.330;21.924;2023-01-29T01:57:51;29.08;;;14.85;;
52816;SDS011;38687;43.330;21.924;2023-01-29T02:00:16;31.23;;;16.20;;
52816;SDS011;38687;43.330;21.924;2023-01-29T02:02:43;28.15;;;14.95;;
52816;SDS011;38687;43.330;21.924;2023-01-29T02:05:28;28.60;;;15.13;;
52816;SDS011;38687;43.330;21.924;2023-01-29T02:08:13;28.75;;;14.23;;
52816;SDS011;38687;43.330;21.924;2023-01-29T02:10:57;24.17;;;11.13;;
52816;SDS011;38687;43.330;21.924;2023-01-29T02:13:25;31.98;;;15.75;;
52816;SDS011;38687;43.330;21.924;2023-01-29T02:15:51;25.58;;;14.23;;
52816;SDS011;38687;43.330;21.924;2023-01-29T02:18:16;30.33;;;15.20;;
52816;SDS011;38687;43.330;21.924;2023-01-29T02:20:43;27.85;;;15.10;;
52816;SDS011;38687;43.330;21.924;2023-01-29T02:23:31;28.58;;;14.63;;
52816;SDS011;38687;43.330;21.924;2023-01-29T02:26:14;30.77;;;14.88;;
52816;SDS011;38687;43.330;21.924;2023-01-29T02:28:50;25.83;;;14.23;;
52816;SDS011;38687;43.330;21.924;2023-01-29T02:36:42;25.30;;;14.30;;
52816;SDS011;38687;43.330;21.924;2023-01-29T02:42:23;26.30;;;14.70;;
52816;SDS011;38687;43.330;21.924;2023-01-29T02:47:09;25.67;;;14.07;;
52816;SDS011;38687;43.330;21.924;2023-01-29T02:49:48;30.02;;;13.80;;
52816;SDS011;38687;43.330;21.924;2023-01-29T02:55:11;27.95;;;14.00;;
52816;SDS011;38687;43.330;21.924;2023-01-29T02:57:41;27.52;;;13.93;;
52816;SDS011;38687;43.330;21.924;2023-01-29T03:05:30;21.48;;;12.35;;
52816;SDS011;38687;43.330;21.924;2023-01-29T03:08:03;22.40;;;12.23;;
52816;SDS011;38687;43.330;21.924;2023-01-29T03:10:35;29.08;;;15.70;;
52816;SDS011;38687;43.330;21.924;2023-01-29T03:13:08;30.80;;;14.35;;
52816;SDS011;38687;43.330;21.924;2023-01-29T03:15:39;27.58;;;14.02;;
52816;SDS011;38687;43.330;21.924;2023-01-29T03:18:12;27.88;;;13.57;;
52816;SDS011;38687;43.330;21.924;2023-01-29T03:20:42;25.33;;;14.02;;
52816;SDS011;38687;43.330;21.924;2023-01-29T03:23:21;26.92;;;12.82;;
52816;SDS011;38687;43.330;21.924;2023-01-29T03:26:10;26.00;;;13.68;;
52816;SDS011;38687;43.330;21.924;2023-01-29T03:28:55;29.30;;;14.25;;
52816;SDS011;38687;43.330;21.924;2023-01-29T03:31:39;25.33;;;14.02;;
52816;SDS011;38687;43.330;21.924;2023-01-29T03:34:23;27.17;;;13.80;;
52816;SDS011;38687;43.330;21.924;2023-01-29T03:37:00;30.30;;;13.65;;
52816;SDS011;38687;43.330;21.924;2023-01-29T03:39:26;23.85;;;13.85;;
52816;SDS011;38687;43.330;21.924;2023-01-29T03:41:59;26.75;;;14.63;;
52816;SDS011;38687;43.330;21.924;2023-01-29T03:52:44;27.23;;;13.32;;
52816;SDS011;38687;43.330;21.924;2023-01-29T03:55:13;25.98;;;12.77;;
52816;SDS011;38687;43.330;21.924;2023-01-29T04:00:27;30.95;;;15.18;;
52816;SDS011;38687;43.330;21.924;2023-01-29T04:05:30;27.05;;;11.50;;
52816;SDS011;38687;43.330;21.924;2023-01-29T04:08:01;29.77;;;16.75;;
52816;SDS011;38687;43.330;21.924;2023-01-29T04:10:27;27.90;;;14.27;;
52816;SDS011;38687;43.330;21.924;2023-01-29T04:12:57;27.38;;;13.95;;
52816;SDS011;38687;43.330;21.924;2023-01-29T04:15:24;32.17;;;18.65;;
52816;SDS011;38687;43.330;21.924;2023-01-29T04:17:51;31.17;;;14.48;;
52816;SDS011;38687;43.330;21.924;2023-01-29T04:20:20;29.90;;;14.68;;
52816;SDS011;38687;43.330;21.924;2023-01-29T04:22:46;27.38;;;14.95;;
52816;SDS011;38687;43.330;21.924;2023-01-29T04:25:15;34.60;;;16.00;;
52816;SDS011;38687;43.330;21.924;2023-01-29T04:33:16;29.13;;;12.63;;
52816;SDS011;38687;43.330;21.924;2023-01-29T04:35:47;24.45;;;12.68;;
52816;SDS011;38687;43.330;21.924;2023-01-29T04:43:24;30.83;;;14.30;;
52816;SDS011;38687;43.330;21.924;2023-01-29T04:48:28;23.42;;;12.02;;
52816;SDS011;38687;43.330;21.924;2023-01-29T04:56:00;27.27;;;13.50;;
52816;SDS011;38687;43.330;21.924;2023-01-29T04:58:35;25.10;;;12.20;;
52816;SDS011;38687;43.330;21.924;2023-01-29T05:01:03;25.23;;;12.38;;
52816;SDS011;38687;43.330;21.924;2023-01-29T05:03:29;24.35;;;13.10;;
52816;SDS011;38687;43.330;21.924;2023-01-29T05:05:59;27.33;;;14.50;;
52816;SDS011;38687;43.330;21.924;2023-01-29T05:08:25;25.92;;;15.07;;
52816;SDS011;38687;43.330;21.924;2023-01-29T05:10:54;26.23;;;13.90;;
52816;SDS011;38687;43.330;21.924;2023-01-29T05:13:21;26.08;;;13.38;;
52816;SDS011;38687;43.330;21.924;2023-01-29T05:15:54;27.02;;;13.27;;
52816;SDS011;38687;43.330;21.924;2023-01-29T05:18:21;26.02;;;14.18;;
52816;SDS011;38687;43.330;21.924;2023-01-29T05:20:46;28.48;;;14.57;;
52816;SDS011;38687;43.330;21.924;2023-01-29T05:23:16;28.23;;;15.75;;
52816;SDS011;38687;43.330;21.924;2023-01-29T05:25:41;25.35;;;13.63;;
52816;SDS011;38687;43.330;21.924;2023-01-29T05:28:07;31.23;;;12.45;;
52816;SDS011;38687;43.330;21.924;2023-01-29T05:30:41;26.00;;;12.40;;
52816;SDS011;38687;43.330;21.924;2023-01-29T05:33:26;26.23;;;12.18;;
52816;SDS011;38687;43.330;21.924;2023-01-29T05:35:52;25.10;;;13.63;;
52816;SDS011;38687;43.330;21.924;2023-01-29T05:38:17;29.25;;;14.13;;
52816;SDS011;38687;43.330;21.924;2023-01-29T05:40:43;26.98;;;14.23;;
52816;SDS011;38687;43.330;21.924;2023-01-29T05:43:18;28.10;;;12.80;;
52816;SDS011;38687;43.330;21.924;2023-01-29T05:45:54;21.90;;;11.50;;
52816;SDS011;38687;43.330;21.924;2023-01-29T05:48:19;23.50;;;12.82;;
52816;SDS011;38687;43.330;21.924;2023-01-29T05:50:44;25.08;;;12.48;;
52816;SDS011;38687;43.330;21.924;2023-01-29T05:53:10;25.35;;;13.35;;
52816;SDS011;38687;43.330;21.924;2023-01-29T05:55:35;26.83;;;13.95;;
52816;SDS011;38687;43.330;21.924;2023-01-29T05:58:00;22.70;;;12.60;;
52816;SDS011;38687;43.330;21.924;2023-01-29T06:00:26;25.52;;;13.90;;
52816;SDS011;38687;43.330;21.924;2023-01-29T06:02:51;25.25;;;12.90;;
52816;SDS011;38687;43.330;21.924;2023-01-29T06:05:16;47.03;;;21.55;;
52816;SDS011;38687;43.330;21.924;2023-01-29T06:07:41;30.00;;;14.52;;
52816;SDS011;38687;43.330;21.924;2023-01-29T06:10:13;34.92;;;14.57;;
52816;SDS011;38687;43.330;21.924;2023-01-29T06:12:38;29.95;;;13.35;;
52816;SDS011;38687;43.330;21.924;2023-01-29T06:15:04;51.45;;;23.65;;
52816;SDS011;38687;43.330;21.924;2023-01-29T06:17:29;46.15;;;20.90;;
52816;SDS011;38687;43.330;21.924;2023-01-29T06:19:58;69.82;;;30.52;;
52816;SDS011;38687;43.330;21.924;2023-01-29T06:22:23;58.80;;;26.00;;
52816;SDS011;38687;43.330;21.924;2023-01-29T06:24:48;192.00;;;63.65;;
52816;SDS011;38687;43.330;21.924;2023-01-29T06:27:13;49.25;;;23.13;;
52816;SDS011;38687;43.330;21.924;2023-01-29T06:29:38;62.00;;;31.38;;
52816;SDS011;38687;43.330;21.924;2023-01-29T06:32:04;31.80;;;16.92;;
52816;SDS011;38687;43.330;21.924;2023-01-29T06:34:29;45.20;;;18.85;;
52816;SDS011;38687;43.330;21.924;2023-01-29T06:36:54;36.35;;;22.85;;
52816;SDS011;38687;43.330;21.924;2023-01-29T06:39:19;34.17;;;16.58;;
52816;SDS011;38687;43.330;21.924;2023-01-29T06:41:45;28.98;;;16.17;;
52816;SDS011;38687;43.330;21.924;2023-01-29T06:44:10;37.17;;;17.52;;
52816;SDS011;38687;43.330;21.924;2023-01-29T06:46:41;25.23;;;12.90;;
52816;SDS011;38687;43.330;21.924;2023-01-29T06:49:06;57.88;;;24.90;;
52816;SDS011;38687;43.330;21.924;2023-01-29T06:51:31;32.03;;;16.55;;
52816;SDS011;38687;43.330;21.924;2023-01-29T06:53:57;36.50;;;17.23;;
52816;SDS011;38687;43.330;21.924;2023-01-29T06:56:22;37.35;;;19.58;;
52816;SDS011;38687;43.330;21.924;2023-01-29T06:58:50;31.15;;;14.70;;
52816;SDS011;38687;43.330;21.924;2023-01-29T07:01:19;38.22;;;18.20;;
52816;SDS011;38687;43.330;21.924;2023-01-29T07:03:47;32.88;;;16.05;;
52816;SDS011;38687;43.330;21.924;2023-01-29T07:06:12;27.35;;;14.63;;
52816;SDS011;38687;43.330;21.924;2023-01-29T07:08:38;21.52;;;12.52;;
52816;SDS011;38687;43.330;21.924;2023-01-29T07:11:04;24.88;;;12.82;;
52816;SDS011;38687;43.330;21.924;2023-01-29T07:13:29;22.92;;;11.65;;
52816;SDS011;38687;43.330;21.924;2023-01-29T07:15:58;23.75;;;13.30;;
52816;SDS011;38687;43.330;21.924;2023-01-29T07:18:24;29.27;;;16.85;;
52816;SDS011;38687;43.330;21.924;2023-01-29T07:20:51;25.77;;;14.23;;
52816;SDS011;38687;43.330;21.924;2023-01-29T07:23:16;21.98;;;12.15;;
52816;SDS011;38687;43.330;21.924;2023-01-29T07:25:45;26.52;;;12.90;;
52816;SDS011;38687;43.330;21.924;2023-01-29T07:28:10;34.05;;;16.70;;
52816;SDS011;38687;43.330;21.924;2023-01-29T07:30:38;38.78;;;19.70;;
52816;SDS011;38687;43.330;21.924;2023-01-29T07:33:04;59.50;;;28.33;;
52816;SDS011;38687;43.330;21.924;2023-01-29T07:35:29;57.88;;;27.90;;
52816;SDS011;38687;43.330;21.924;2023-01-29T07:37:56;45.25;;;21.90;;
52816;SDS011;38687;43.330;21.924;2023-01-29T07:40:22;57.92;;;27.15;;
52816;SDS011;38687;43.330;21.924;2023-01-29T07:42:47;36.75;;;20.48;;
52816;SDS011;38687;43.330;21.924;2023-01-29T07:45:12;42.72;;;22.92;;
52816;SDS011;38687;43.330;21.924;2023-01-29T07:47:38;36.97;;;20.27;;
52816;SDS011;38687;43.330;21.924;2023-01-29T07:50:03;46.75;;;22.65;;
52816;SDS011;38687;43.330;21.924;2023-01-29T07:52:30;59.15;;;27.23;;
52816;SDS011;38687;43.330;21.924;2023-01-29T07:54:55;46.17;;;21.17;;
52816;SDS011;38687;43.330;21.924;2023-01-29T07:57:23;43.45;;;21.35;;
52816;SDS011;38687;43.330;21.924;2023-01-29T07:59:48;40.25;;;18.92;;
52816;SDS011;38687;43.330;21.924;2023-01-29T08:02:13;47.70;;;21.30;;
52816;SDS011;38687;43.330;21.924;2023-01-29T08:04:39;29.08;;;16.42;;
52816;SDS011;38687;43.330;21.924;2023-01-29T08:07:10;32.67;;;18.40;;
52816;SDS011;38687;43.330;21.924;2023-01-29T08:09:35;39.30;;;22.05;;
52816;SDS011;38687;43.330;21.924;2023-01-29T08:12:01;38.97;;;18.13;;
52816;SDS011;38687;43.330;21.924;2023-01-29T08:14:26;38.17;;;17.63;;
52816;SDS011;38687;43.330;21.924;2023-01-29T08:16:52;40.50;;;19.15;;
52816;SDS011;38687;43.330;21.924;2023-01-29T08:19:18;52.70;;;27.00;;
52816;SDS011;38687;43.330;21.924;2023-01-29T08:21:43;29.13;;;15.90;;
52816;SDS011;38687;43.330;21.924;2023-01-29T08:24:08;35.63;;;18.10;;
52816;SDS011;38687;43.330;21.924;2023-01-29T08:26:33;49.65;;;25.98;;
52816;SDS011;38687;43.330;21.924;2023-01-29T08:28:59;45.35;;;21.70;;
52816;SDS011;38687;43.330;21.924;2023-01-29T08:31:24;44.03;;;21.83;;
52816;SDS011;38687;43.330;21.924;2023-01-29T08:33:52;65.22;;;33.50;;
52816;SDS011;38687;43.330;21.924;2023-01-29T08:36:18;41.90;;;21.58;;
52816;SDS011;38687;43.330;21.924;2023-01-29T08:38:43;57.17;;;28.35;;
52816;SDS011;38687;43.330;21.924;2023-01-29T08:41:09;55.53;;;28.35;;
52816;SDS011;38687;43.330;21.924;2023-01-29T08:43:34;41.10;;;20.92;;
52816;SDS011;38687;43.330;21.924;2023-01-29T08:46:03;43.95;;;22.75;;
52816;SDS011;38687;43.330;21.924;2023-01-29T08:48:28;33.78;;;18.40;;
52816;SDS011;38687;43.330;21.924;2023-01-29T08:51:00;47.28;;;22.65;;
52816;SDS011;38687;43.330;21.924;2023-01-29T08:53:26;56.50;;;27.98;;
52816;SDS011;38687;43.330;21.924;2023-01-29T08:55:52;62.45;;;30.23;;
52816;SDS011;38687;43.330;21.924;2023-01-29T08:58:18;52.63;;;25.02;;
52816;SDS011;38687;43.330;21.924;2023-01-29T09:00:43;52.00;;;26.70;;
52816;SDS011;38687;43.330;21.924;2023-01-29T09:03:08;51.47;;;25.75;;
52816;SDS011;38687;43.330;21.924;2023-01-29T09:05:39;37.50;;;20.75;;
52816;SDS011;38687;43.330;21.924;2023-01-29T09:08:05;39.28;;;19.25;;
52816;SDS011;38687;43.330;21.924;2023-01-29T09:10:34;48.60;;;25.10;;
52816;SDS011;38687;43.330;21.924;2023-01-29T09:13:00;54.30;;;26.27;;
52816;SDS011;38687;43.330;21.924;2023-01-29T09:15:25;50.00;;;25.25;;
52816;SDS011;38687;43.330;21.924;2023-01-29T09:17:53;42.53;;;21.02;;
52816;SDS011;38687;43.330;21.924;2023-01-29T09:20:18;41.30;;;19.85;;
52816;SDS011;38687;43.330;21.924;2023-01-29T09:22:44;37.25;;;19.13;;
52816;SDS011;38687;43.330;21.924;2023-01-29T09:25:10;42.42;;;23.38;;
52816;SDS011;38687;43.330;21.924;2023-01-29T09:27:38;39.58;;;19.48;;
52816;SDS011;38687;43.330;21.924;2023-01-29T09:30:04;45.42;;;21.88;;
52816;SDS011;38687;43.330;21.924;2023-01-29T09:32:30;51.13;;;24.42;;
52816;SDS011;38687;43.330;21.924;2023-01-29T09:34:56;50.45;;;27.00;;
52816;SDS011;38687;43.330;21.924;2023-01-29T09:37:21;53.90;;;27.35;;
52816;SDS011;38687;43.330;21.924;2023-01-29T09:39:47;48.20;;;24.73;;
52816;SDS011;38687;43.330;21.924;2023-01-29T09:47:25;50.17;;;27.05;;
52816;SDS011;38687;43.330;21.924;2023-01-29T09:49:59;50.35;;;26.25;;
52816;SDS011;38687;43.330;21.924;2023-01-29T09:55:21;40.75;;;21.92;;
52816;SDS011;38687;43.330;21.924;2023-01-29T09:57:53;61.63;;;31.90;;
52816;SDS011;38687;43.330;21.924;2023-01-29T10:11:16;43.88;;;26.27;;
52816;SDS011;38687;43.330;21.924;2023-01-29T10:13:47;47.00;;;24.17;;
52816;SDS011;38687;43.330;21.924;2023-01-29T10:16:20;66.68;;;31.05;;
52816;SDS011;38687;43.330;21.924;2023-01-29T10:19:07;53.08;;;26.48;;
52816;SDS011;38687;43.330;21.924;2023-01-29T10:26:48;46.47;;;23.23;;
52816;SDS011;38687;43.330;21.924;2023-01-29T10:29:15;43.42;;;21.13;;
52816;SDS011;38687;43.330;21.924;2023-01-29T10:31:42;38.90;;;18.30;;
52816;SDS011;38687;43.330;21.924;2023-01-29T10:34:13;49.67;;;23.25;;
52816;SDS011;38687;43.330;21.924;2023-01-29T10:36:43;36.88;;;20.65;;
52816;SDS011;38687;43.330;21.924;2023-01-29T10:39:15;37.55;;;20.63;;
52816;SDS011;38687;43.330;21.924;2023-01-29T10:46:46;38.33;;;20.80;;
52816;SDS011;38687;43.330;21.924;2023-01-29T10:51:44;43.72;;;20.13;;
52816;SDS011;38687;43.330;21.924;2023-01-29T11:01:46;36.05;;;17.77;;
52816;SDS011;38687;43.330;21.924;2023-01-29T11:04:12;38.80;;;17.48;;
52816;SDS011;38687;43.330;21.924;2023-01-29T11:06:37;40.63;;;18.25;;
52816;SDS011;38687;43.330;21.924;2023-01-29T11:11:47;42.63;;;20.43;;
52816;SDS011;38687;43.330;21.924;2023-01-29T11:14:15;42.22;;;21.23;;
52816;SDS011;38687;43.330;21.924;2023-01-29T11:16:44;38.38;;;19.63;;
52816;SDS011;38687;43.330;21.924;2023-01-29T11:19:11;43.25;;;19.38;;
52816;SDS011;38687;43.330;21.924;2023-01-29T11:21:54;48.63;;;23.25;;
52816;SDS011;38687;43.330;21.924;2023-01-29T11:24:20;47.40;;;24.05;;
52816;SDS011;38687;43.330;21.924;2023-01-29T11:26:47;50.28;;;24.65;;
52816;SDS011;38687;43.330;21.924;2023-01-29T11:31:53;53.03;;;24.27;;
52816;SDS011;38687;43.330;21.924;2023-01-29T11:34:21;46.17;;;24.10;;
52816;SDS011;38687;43.330;21.924;2023-01-29T11:36:55;37.08;;;14.38;;
52816;SDS011;38687;43.330;21.924;2023-01-29T11:39:23;50.85;;;27.85;;
52816;SDS011;38687;43.330;21.924;2023-01-29T11:44:34;44.13;;;21.67;;
52816;SDS011;38687;43.330;21.924;2023-01-29T11:52:21;51.28;;;22.30;;
52816;SDS011;38687;43.330;21.924;2023-01-29T11:57:21;55.03;;;23.55;;
52816;SDS011;38687;43.330;21.924;2023-01-29T11:59:48;62.60;;;27.50;;
52816;SDS011;38687;43.330;21.924;2023-01-29T12:04:42;59.28;;;27.20;;
52816;SDS011;38687;43.330;21.924;2023-01-29T12:07:11;54.70;;;24.25;;
52816;SDS011;38687;43.330;21.924;2023-01-29T12:09:38;65.72;;;29.77;;
52816;SDS011;38687;43.330;21.924;2023-01-29T12:12:15;56.88;;;27.63;;
52816;SDS011;38687;43.330;21.924;2023-01-29T12:14:41;69.32;;;29.35;;
52816;SDS011;38687;43.330;21.924;2023-01-29T12:17:18;54.38;;;21.48;;
52816;SDS011;38687;43.330;21.924;2023-01-29T12:19:47;72.55;;;29.60;;
52816;SDS011;38687;43.330;21.924;2023-01-29T12:22:26;72.18;;;30.02;;
52816;SDS011;38687;43.330;21.924;2023-01-29T12:27:31;52.60;;;23.40;;
52816;SDS011;38687;43.330;21.924;2023-01-29T12:35:04;53.03;;;24.10;;
52816;SDS011;38687;43.330;21.924;2023-01-29T12:39:59;72.20;;;32.78;;
52816;SDS011;38687;43.330;21.924;2023-01-29T12:42:25;72.90;;;30.67;;
52816;SDS011;38687;43.330;21.924;2023-01-29T12:44:52;74.13;;;30.90;;
52816;SDS011;38687;43.330;21.924;2023-01-29T12:47:37;65.78;;;27.52;;
52816;SDS011;38687;43.330;21.924;2023-01-29T12:50:19;79.25;;;34.70;;
52816;SDS011;38687;43.330;21.924;2023-01-29T12:52:49;68.80;;;31.70;;
52816;SDS011;38687;43.330;21.924;2023-01-29T12:55:20;68.78;;;33.10;;
52816;SDS011;38687;43.330;21.924;2023-01-29T12:58:00;50.42;;;24.80;;
52816;SDS011;38687;43.330;21.924;2023-01-29T13:00:27;55.08;;;24.42;;
52816;SDS011;38687;43.330;21.924;2023-01-29T13:02:58;65.22;;;27.33;;
52816;SDS011;38687;43.330;21.924;2023-01-29T13:07:56;67.00;;;30.45;;
52816;SDS011;38687;43.330;21.924;2023-01-29T13:10:25;65.57;;;28.30;;
52816;SDS011;38687;43.330;21.924;2023-01-29T13:13:00;64.55;;;27.70;;
52816;SDS011;38687;43.330;21.924;2023-01-29T13:15:31;67.00;;;32.83;;
52816;SDS011;38687;43.330;21.924;2023-01-29T13:18:02;63.65;;;27.00;;
52816;SDS011;38687;43.330;21.924;2023-01-29T13:20:32;78.40;;;34.00;;
52816;SDS011;38687;43.330;21.924;2023-01-29T13:23:05;76.43;;;30.33;;
52816;SDS011;38687;43.330;21.924;2023-01-29T13:25:40;80.65;;;31.27;;
52816;SDS011;38687;43.330;21.924;2023-01-29T13:28:05;70.18;;;33.97;;
52816;SDS011;38687;43.330;21.924;2023-01-29T13:30:39;106.70;;;40.40;;
52816;SDS011;38687;43.330;21.924;2023-01-29T13:33:04;117.13;;;47.45;;
52816;SDS011;38687;43.330;21.924;2023-01-29T13:35:36;56.80;;;22.77;;
52816;SDS011;38687;43.330;21.924;2023-01-29T13:38:02;60.75;;;26.42;;
52816;SDS011;38687;43.330;21.924;2023-01-29T13:40:29;64.55;;;27.80;;
52816;SDS011;38687;43.330;21.924;2023-01-29T13:42:58;66.05;;;26.75;;
52816;SDS011;38687;43.330;21.924;2023-01-29T13:47:51;69.40;;;29.67;;
52816;SDS011;38687;43.330;21.924;2023-01-29T13:50:23;57.83;;;25.92;;
52816;SDS011;38687;43.330;21.924;2023-01-29T14:02:52;71.97;;;31.75;;
52816;SDS011;38687;43.330;21.924;2023-01-29T14:05:37;73.32;;;31.42;;
52816;SDS011;38687;43.330;21.924;2023-01-29T14:10:34;77.65;;;34.45;;
52816;SDS011;38687;43.330;21.924;2023-01-29T14:15:35;91.57;;;46.70;;
52816;SDS011;38687;43.330;21.924;2023-01-29T14:21:00;65.90;;;30.00;;
52816;SDS011;38687;43.330;21.924;2023-01-29T14:25:42;65.67;;;31.30;;
52816;SDS011;38687;43.330;21.924;2023-01-29T14:28:13;59.25;;;29.08;;
52816;SDS011;38687;43.330;21.924;2023-01-29T14:30:39;62.55;;;28.73;;
52816;SDS011;38687;43.330;21.924;2023-01-29T14:33:05;72.43;;;31.95;;
52816;SDS011;38687;43.330;21.924;2023-01-29T14:38:06;74.38;;;38.45;;
52816;SDS011;38687;43.330;21.924;2023-01-29T14:40:31;56.30;;;25.00;;
52816;SDS011;38687;43.330;21.924;2023-01-29T14:43:07;52.83;;;21.67;;
52816;SDS011;38687;43.330;21.924;2023-01-29T14:48:02;43.55;;;19.38;;
52816;SDS011;38687;43.330;21.924;2023-01-29T14:50:37;46.65;;;22.15;;
52816;SDS011;38687;43.330;21.924;2023-01-29T14:58:05;78.57;;;37.97;;
52816;SDS011;38687;43.330;21.924;2023-01-29T15:00:35;48.63;;;23.15;;
52816;SDS011;38687;43.330;21.924;2023-01-29T15:03:01;85.05;;;40.45;;
52816;SDS011;38687;43.330;21.924;2023-01-29T15:05:34;62.45;;;27.25;;
52816;SDS011;38687;43.330;21.924;2023-01-29T15:10:48;51.40;;;26.85;;
52816;SDS011;38687;43.330;21.924;2023-01-29T15:13:36;61.67;;;26.63;;
52816;SDS011;38687;43.330;21.924;2023-01-29T15:16:11;60.90;;;27.77;;
52816;SDS011;38687;43.330;21.924;2023-01-29T15:18:39;67.45;;;29.45;;
52816;SDS011;38687;43.330;21.924;2023-01-29T15:21:13;53.70;;;25.23;;
52816;SDS011;38687;43.330;21.924;2023-01-29T15:23:38;65.00;;;30.02;;
52816;SDS011;38687;43.330;21.924;2023-01-29T15:26:05;74.65;;;32.80;;
52816;SDS011;38687;43.330;21.924;2023-01-29T15:28:35;82.88;;;37.40;;
52816;SDS011;38687;43.330;21.924;2023-01-29T15:31:02;60.38;;;29.40;;
52816;SDS011;38687;43.330;21.924;2023-01-29T15:33:32;67.40;;;30.38;;
52816;SDS011;38687;43.330;21.924;2023-01-29T15:36:01;58.22;;;28.05;;
52816;SDS011;38687;43.330;21.924;2023-01-29T15:38:28;50.35;;;23.80;;
52816;SDS011;38687;43.330;21.924;2023-01-29T15:41:02;58.25;;;26.23;;
52816;SDS011;38687;43.330;21.924;2023-01-29T15:43:28;61.92;;;28.98;;
52816;SDS011;38687;43.330;21.924;2023-01-29T15:45:58;49.63;;;22.73;;
52816;SDS011;38687;43.330;21.924;2023-01-29T15:48:44;48.47;;;25.05;;
52816;SDS011;38687;43.330;21.924;2023-01-29T15:51:11;53.63;;;26.73;;
52816;SDS011;38687;43.330;21.924;2023-01-29T15:53:43;62.15;;;29.08;;
52816;SDS011;38687;43.330;21.924;2023-01-29T15:56:10;51.53;;;23.88;;
52816;SDS011;38687;43.330;21.924;2023-01-29T15:58:58;57.85;;;25.77;;
52816;SDS011;38687;43.330;21.924;2023-01-29T16:01:25;64.13;;;29.30;;
52816;SDS011;38687;43.330;21.924;2023-01-29T16:03:51;55.00;;;23.00;;
52816;SDS011;38687;43.330;21.924;2023-01-29T16:06:16;60.90;;;27.13;;
52816;SDS011;38687;43.330;21.924;2023-01-29T16:08:42;54.55;;;27.48;;
52816;SDS011;38687;43.330;21.924;2023-01-29T16:11:08;60.53;;;28.95;;
52816;SDS011;38687;43.330;21.924;2023-01-29T16:13:34;69.35;;;28.35;;
52816;SDS011;38687;43.330;21.924;2023-01-29T16:16:05;71.75;;;30.85;;
52816;SDS011;38687;43.330;21.924;2023-01-29T16:18:40;64.95;;;27.55;;
52816;SDS011;38687;43.330;21.924;2023-01-29T16:21:16;58.92;;;29.02;;
52816;SDS011;38687;43.330;21.924;2023-01-29T16:24:20;66.10;;;31.10;;
52816;SDS011;38687;43.330;21.924;2023-01-29T16:26:43;75.43;;;35.30;;
52816;SDS011;38687;43.330;21.924;2023-01-29T16:29:13;74.60;;;32.40;;
52816;SDS011;38687;43.330;21.924;2023-01-29T16:31:39;63.83;;;29.83;;
52816;SDS011;38687;43.330;21.924;2023-01-29T16:34:07;63.83;;;29.17;;
52816;SDS011;38687;43.330;21.924;2023-01-29T16:36:34;80.47;;;34.15;;
52816;SDS011;38687;43.330;21.924;2023-01-29T16:39:00;59.15;;;27.08;;
52816;SDS011;38687;43.330;21.924;2023-01-29T16:44:03;70.57;;;31.63;;
52816;SDS011;38687;43.330;21.924;2023-01-29T16:48:54;60.83;;;29.13;;
52816;SDS011;38687;43.330;21.924;2023-01-29T16:51:22;95.05;;;47.95;;
52816;SDS011;38687;43.330;21.924;2023-01-29T16:53:54;74.20;;;35.97;;
52816;SDS011;38687;43.330;21.924;2023-01-29T16:56:20;84.25;;;46.03;;
52816;SDS011;38687;43.330;21.924;2023-01-29T16:58:48;79.63;;;35.00;;
52816;SDS011;38687;43.330;21.924;2023-01-29T17:01:13;55.38;;;26.45;;
52816;SDS011;38687;43.330;21.924;2023-01-29T17:03:38;66.03;;;28.98;;